Terminal Aerodrome Forecast
Issued by NWS

Home | Current Version | Previous Version | Text Only | Print | Product List | Glossary On
Versions: 1 2 3 4 5 6 7 8 9 10 11 12 13 14 15
000
FTUS45 KLKN 230500
TAFWMC
TAF
KWMC 230520Z 2306/2406 00000KT P6SM SCT070
     FM230900 VRB03KT P6SM BKN060
     FM231800 25010G20KT P6SM BKN060
     FM240200 VRB03KT P6SM BKN070=

USA.gov is the U.S. government's official web portal to all federal, state and local government web resources and services.